createdAt,value
2022-07-29T00:00:33.391Z,25.74
2022-07-29T00:03:00.990Z,25.58
2022-07-29T00:05:29.047Z,25.48
2022-07-29T00:07:56.569Z,25.11
2022-07-29T00:10:24.128Z,25.54
2022-07-29T00:12:51.601Z,25.85
2022-07-29T00:15:19.768Z,25.77
2022-07-29T00:17:47.415Z,25.63
2022-07-29T00:20:14.896Z,25.86
2022-07-29T00:22:42.379Z,25.31
2022-07-29T00:25:10.284Z,25.18
2022-07-29T00:27:37.841Z,25.76
2022-07-29T00:30:06.471Z,25.56
2022-07-29T00:32:34.256Z,25.61
2022-07-29T00:35:20.303Z,25.47
2022-07-29T00:37:47.857Z,25.16
2022-07-29T00:40:15.298Z,24.93
2022-07-29T00:42:48.161Z,24.27
2022-07-29T00:45:16.618Z,24.11
2022-07-29T00:47:44.839Z,24.00
2022-07-29T00:50:13.886Z,24.17
2022-07-29T00:52:42.958Z,24.14
2022-07-29T00:55:15.655Z,23.89
2022-07-29T00:57:44.810Z,24.09
2022-07-29T01:00:18.695Z,24.39
2022-07-29T01:02:49.295Z,24.54
2022-07-29T01:05:22.068Z,24.55
2022-07-29T01:07:53.506Z,24.22
2022-07-29T01:10:22.948Z,24.04
2022-07-29T01:12:52.877Z,24.02
2022-07-29T01:15:21.059Z,24.11
2022-07-29T01:18:03.718Z,24.48
2022-07-29T01:21:04.393Z,24.21
2022-07-29T01:23:59.791Z,24.46
2022-07-29T01:26:36.407Z,24.38
2022-07-29T01:29:09.179Z,24.63
2022-07-29T01:32:00.568Z,24.49
2022-07-29T01:34:49.865Z,24.44
2022-07-29T01:37:50.229Z,24.33
2022-07-29T01:40:23.569Z,24.33
2022-07-29T01:42:55.759Z,24.51
2022-07-29T01:45:30.226Z,24.75
2022-07-29T01:48:01.972Z,24.55
2022-07-29T01:50:47.301Z,24.37
2022-07-29T01:53:22.258Z,24.33
2022-07-29T01:55:50.375Z,24.22
2022-07-29T01:58:20.087Z,24.20
2022-07-29T02:00:49.445Z,24.49
2022-07-29T02:03:19.740Z,24.77
2022-07-29T02:05:48.968Z,24.32
2022-07-29T02:08:19.430Z,24.17
2022-07-29T02:10:49.459Z,24.21
2022-07-29T02:13:19.289Z,23.84
2022-07-29T02:15:47.869Z,23.86
2022-07-29T02:18:20.654Z,23.94
2022-07-29T02:20:53.145Z,23.88
2022-07-29T02:23:23.538Z,23.66
2022-07-29T02:25:54.299Z,23.84
2022-07-29T02:28:23.896Z,24.02
2022-07-29T02:30:53.612Z,23.94
2022-07-29T02:33:22.502Z,23.69
2022-07-29T02:35:51.267Z,23.78
2022-07-29T02:38:39.845Z,23.84
2022-07-29T02:41:12.556Z,23.91
2022-07-29T02:43:42.133Z,23.78
2022-07-29T02:46:28.940Z,24.02
2022-07-29T02:49:21.976Z,23.95
2022-07-29T02:51:58.594Z,24.09
2022-07-29T02:54:52.568Z,24.03
2022-07-29T02:57:31.340Z,24.02
2022-07-29T03:00:04.880Z,23.84
2022-07-29T03:02:38.761Z,23.83
2022-07-29T03:05:09.104Z,23.68
2022-07-29T03:07:38.133Z,23.86
2022-07-29T03:10:07.940Z,23.91
2022-07-29T03:12:42.658Z,23.84
2022-07-29T03:15:11.186Z,23.98
2022-07-29T03:17:40.223Z,23.78
2022-07-29T03:20:09.069Z,23.88
2022-07-29T03:22:44.680Z,23.72
2022-07-29T03:25:12.946Z,23.96
2022-07-29T03:27:40.734Z,23.69
2022-07-29T03:30:09.585Z,23.35
2022-07-29T03:32:37.613Z,23.32
2022-07-29T03:35:06.600Z,23.55
2022-07-29T03:37:34.597Z,23.08
2022-07-29T03:40:08.179Z,23.56
2022-07-29T03:42:39.110Z,23.29
2022-07-29T03:45:11.117Z,23.23
2022-07-29T03:47:50.874Z,23.41
2022-07-29T03:50:21.913Z,23.36
2022-07-29T03:52:50.537Z,23.63
2022-07-29T03:55:18.326Z,23.24
2022-07-29T03:57:48.317Z,23.24
2022-07-29T04:00:17.060Z,23.39
2022-07-29T04:02:49.619Z,23.58
2022-07-29T04:05:18.242Z,23.54
2022-07-29T04:07:47.456Z,23.64
2022-07-29T04:10:16.776Z,23.46
2022-07-29T04:12:44.544Z,23.23
2022-07-29T04:15:12.340Z,23.34
2022-07-29T04:17:39.919Z,23.31
2022-07-29T04:20:07.993Z,23.35
2022-07-29T04:22:35.674Z,23.38
2022-07-29T04:25:04.196Z,23.29
2022-07-29T04:27:32.273Z,23.22
2022-07-29T04:29:59.728Z,23.30
2022-07-29T04:32:27.877Z,23.04
2022-07-29T04:34:55.344Z,23.11
2022-07-29T04:37:22.811Z,23.23
2022-07-29T04:39:50.308Z,23.36
2022-07-29T04:42:17.764Z,23.40
2022-07-29T04:44:52.639Z,23.12
2022-07-29T04:47:20.100Z,23.18
2022-07-29T04:49:47.544Z,23.14
2022-07-29T04:52:15.021Z,23.38
2022-07-29T04:54:42.505Z,23.57
2022-07-29T04:57:09.994Z,23.50
2022-07-29T04:59:37.428Z,23.65
2022-07-29T05:02:04.945Z,23.86
2022-07-29T05:04:32.514Z,24.17
2022-07-29T05:07:00.005Z,24.04
2022-07-29T05:09:27.577Z,24.19
2022-07-29T05:11:55.033Z,24.04
2022-07-29T05:14:22.458Z,24.21
2022-07-29T05:16:52.093Z,24.41
2022-07-29T05:19:19.504Z,24.25
2022-07-29T05:21:46.943Z,24.28
2022-07-29T05:24:14.856Z,23.75
2022-07-29T05:26:43.722Z,24.27
2022-07-29T05:29:43.164Z,23.97
2022-07-29T05:31:59.756Z,23.79
2022-07-29T05:34:27.964Z,23.78
2022-07-29T05:36:55.696Z,24.00
2022-07-29T05:39:23.521Z,24.07
2022-07-29T05:42:11.170Z,24.38
2022-07-29T05:44:39.922Z,24.00
2022-07-29T05:47:07.569Z,23.50
2022-07-29T05:49:35.191Z,23.45
2022-07-29T05:52:02.742Z,23.55
2022-07-29T05:54:30.319Z,23.92
2022-07-29T05:56:57.788Z,23.52
2022-07-29T05:59:30.117Z,23.52
2022-07-29T06:01:58.673Z,23.66
2022-07-29T06:04:26.248Z,23.75
2022-07-29T06:06:53.713Z,23.82
2022-07-29T06:09:21.201Z,23.95
2022-07-29T06:11:48.682Z,23.87
2022-07-29T06:14:16.466Z,23.91
2022-07-29T06:16:44.085Z,23.98
2022-07-29T06:19:11.609Z,24.06
2022-07-29T06:21:45.981Z,24.34
2022-07-29T06:24:14.961Z,24.39
2022-07-29T06:26:43.391Z,24.17
2022-07-29T06:29:11.755Z,24.20
2022-07-29T06:31:39.756Z,24.50
2022-07-29T06:34:07.691Z,24.58
2022-07-29T06:36:37.704Z,24.65
2022-07-29T06:39:09.191Z,24.83
2022-07-29T06:41:36.706Z,25.01
2022-07-29T06:44:10.512Z,24.90
2022-07-29T06:46:38.044Z,24.89
2022-07-29T06:49:05.898Z,25.03
2022-07-29T06:51:33.535Z,25.16
2022-07-29T06:54:02.678Z,25.15
2022-07-29T06:56:32.420Z,25.29
2022-07-29T06:59:06.329Z,25.54
2022-07-29T07:01:33.900Z,25.68
2022-07-29T07:04:01.682Z,25.86
2022-07-29T07:06:29.227Z,25.60
2022-07-29T07:08:56.760Z,25.57
2022-07-29T07:11:24.333Z,25.88
2022-07-29T07:13:51.846Z,25.73
2022-07-29T07:16:19.471Z,25.81
2022-07-29T07:18:47.087Z,25.87
2022-07-29T07:21:19.162Z,25.93
2022-07-29T07:23:47.614Z,25.87
2022-07-29T07:26:15.879Z,25.68
2022-07-29T07:28:43.381Z,25.95
2022-07-29T07:31:11.734Z,26.33
2022-07-29T07:33:39.292Z,26.87
2022-07-29T07:36:06.773Z,26.88
2022-07-29T07:38:34.244Z,26.62
2022-07-29T07:41:02.188Z,26.68
2022-07-29T07:43:29.755Z,27.30
2022-07-29T07:45:57.278Z,26.75
2022-07-29T07:48:24.843Z,26.99
2022-07-29T07:50:55.366Z,27.61
2022-07-29T07:53:23.177Z,27.04
2022-07-29T07:56:10.054Z,26.86
2022-07-29T07:58:38.118Z,27.15
2022-07-29T08:01:05.642Z,26.83
2022-07-29T08:03:34.074Z,26.45
2022-07-29T08:06:02.509Z,26.62
2022-07-29T08:08:29.983Z,27.06
2022-07-29T08:10:57.808Z,27.02
2022-07-29T08:13:29.270Z,27.14
2022-07-29T08:16:02.351Z,27.01
2022-07-29T08:18:32.127Z,27.15
2022-07-29T08:20:59.893Z,27.59
2022-07-29T08:23:32.812Z,27.13
2022-07-29T08:26:14.977Z,27.01
2022-07-29T08:28:46.832Z,26.98
2022-07-29T08:31:15.102Z,27.82
2022-07-29T08:33:43.364Z,27.98
2022-07-29T08:36:11.022Z,27.71
2022-07-29T08:38:38.468Z,28.00
2022-07-29T08:41:05.916Z,28.57
2022-07-29T08:43:36.134Z,28.56
2022-07-29T08:46:03.735Z,27.89
2022-07-29T08:48:32.786Z,28.37
2022-07-29T08:51:01.512Z,28.64
2022-07-29T08:53:30.735Z,28.61
2022-07-29T08:55:59.170Z,28.05
2022-07-29T08:58:28.357Z,27.81
2022-07-29T09:00:58.038Z,27.52
2022-07-29T09:03:31.679Z,27.55
2022-07-29T09:06:03.237Z,27.45
2022-07-29T09:08:32.793Z,27.55
2022-07-29T09:11:03.828Z,27.42
2022-07-29T09:13:31.612Z,27.60
2022-07-29T09:15:59.093Z,28.32
2022-07-29T09:18:36.967Z,28.78
2022-07-29T09:21:24.819Z,28.64
2022-07-29T09:24:18.864Z,29.18
2022-07-29T09:26:47.439Z,29.23
2022-07-29T09:29:21.314Z,29.37
2022-07-29T09:31:51.305Z,29.58
2022-07-29T09:34:32.359Z,29.96
2022-07-29T09:36:59.920Z,30.33
2022-07-29T09:39:34.341Z,30.43
2022-07-29T09:42:04.663Z,30.10
2022-07-29T09:44:50.936Z,30.65
2022-07-29T09:47:20.149Z,29.57
2022-07-29T09:50:01.210Z,29.30
2022-07-29T09:52:30.299Z,29.07
2022-07-29T09:55:08.781Z,29.08
2022-07-29T09:57:36.785Z,29.23
2022-07-29T10:00:09.093Z,29.14
2022-07-29T10:02:47.257Z,29.98
2022-07-29T10:05:23.802Z,30.27
2022-07-29T10:07:57.391Z,30.40
2022-07-29T10:10:27.818Z,30.77
2022-07-29T10:13:08.042Z,30.69
2022-07-29T10:15:42.153Z,30.91
2022-07-29T10:18:11.175Z,31.37
2022-07-29T10:20:39.299Z,30.94
2022-07-29T10:23:07.161Z,31.62
2022-07-29T10:25:34.759Z,31.93
2022-07-29T10:28:02.201Z,31.87
2022-07-29T10:30:29.708Z,31.49
2022-07-29T10:33:15.939Z,31.67
2022-07-29T10:35:58.804Z,32.24
2022-07-29T10:38:55.558Z,32.28
2022-07-29T10:41:43.848Z,33.10
2022-07-29T10:44:24.063Z,32.54
2022-07-29T10:46:53.091Z,31.88
2022-07-29T10:49:24.921Z,31.56
2022-07-29T10:51:58.911Z,32.97
2022-07-29T10:54:52.376Z,31.54
2022-07-29T10:57:53.733Z,31.87
2022-07-29T11:00:29.067Z,31.71
2022-07-29T11:02:59.149Z,32.06
2022-07-29T11:05:39.869Z,32.95
2022-07-29T11:08:20.543Z,32.45
2022-07-29T11:10:50.340Z,32.98
2022-07-29T11:13:49.069Z,31.93
2022-07-29T11:16:21.260Z,31.68
2022-07-29T11:19:14.161Z,30.66
2022-07-29T11:21:55.365Z,30.99
2022-07-29T11:24:31.952Z,31.89
2022-07-29T11:27:13.242Z,32.56
2022-07-29T11:29:55.934Z,32.83
2022-07-29T11:32:29.516Z,33.08
2022-07-29T11:35:19.173Z,32.68
2022-07-29T11:38:27.953Z,33.34
2022-07-29T11:41:25.160Z,33.33
2022-07-29T11:43:53.958Z,33.75
2022-07-29T11:46:53.751Z,34.29
2022-07-29T11:49:32.224Z,33.43
2022-07-29T11:52:04.873Z,33.50
2022-07-29T11:54:57.296Z,33.08
2022-07-29T11:57:22.774Z,33.71
2022-07-29T12:00:11.986Z,32.92
2022-07-29T12:02:48.367Z,33.12
2022-07-29T12:05:35.983Z,32.23
2022-07-29T12:08:08.332Z,33.60
2022-07-29T12:10:42.013Z,33.25
2022-07-29T12:13:11.106Z,33.99
2022-07-29T12:15:46.981Z,33.55
2022-07-29T12:18:23.903Z,33.57
2022-07-29T12:21:05.922Z,34.65
2022-07-29T12:23:35.018Z,34.77
2022-07-29T12:26:11.028Z,35.02
2022-07-29T12:28:52.949Z,35.23
2022-07-29T12:31:43.304Z,34.72
2022-07-29T12:34:12.376Z,34.52
2022-07-29T12:36:40.135Z,35.36
2022-07-29T12:39:07.916Z,35.84
2022-07-29T12:41:35.847Z,35.40
2022-07-29T12:44:03.427Z,35.92
2022-07-29T12:46:33.139Z,35.25
2022-07-29T12:49:00.892Z,35.18
2022-07-29T12:51:39.792Z,35.17
2022-07-29T12:54:08.963Z,35.94
2022-07-29T12:56:44.797Z,35.89
2022-07-29T12:59:21.383Z,36.04
2022-07-29T13:01:52.273Z,35.73
2022-07-29T13:04:31.825Z,35.89
2022-07-29T13:07:06.931Z,35.49
2022-07-29T13:09:46.498Z,35.42
2022-07-29T13:12:15.109Z,35.55
2022-07-29T13:14:47.989Z,36.62
2022-07-29T13:17:21.758Z,35.83
2022-07-29T13:20:09.801Z,36.53
2022-07-29T13:22:37.262Z,35.59
2022-07-29T13:25:07.516Z,35.05
2022-07-29T13:27:38.310Z,34.79
2022-07-29T13:30:07.126Z,36.02
2022-07-29T13:32:35.540Z,35.24
2022-07-29T13:35:06.586Z,35.92
2022-07-29T13:37:35.942Z,36.63
2022-07-29T13:40:05.184Z,36.75
2022-07-29T13:42:33.680Z,36.04
2022-07-29T13:45:01.856Z,34.74
2022-07-29T13:47:34.079Z,33.97
2022-07-29T13:50:02.334Z,33.53
2022-07-29T13:52:30.003Z,32.84
2022-07-29T13:54:57.473Z,33.10
2022-07-29T13:57:25.166Z,33.00
2022-07-29T13:59:54.455Z,32.82
2022-07-29T14:02:25.370Z,32.61
2022-07-29T14:04:54.774Z,32.34
2022-07-29T14:07:23.948Z,32.03
2022-07-29T14:09:51.820Z,32.23
2022-07-29T14:12:20.093Z,31.99
2022-07-29T14:14:47.604Z,31.66
2022-07-29T14:17:16.045Z,31.33
2022-07-29T14:19:43.969Z,31.57
2022-07-29T14:22:11.520Z,31.38
2022-07-29T14:24:39.740Z,31.30
2022-07-29T14:27:08.941Z,31.06
2022-07-29T14:29:38.803Z,30.66
2022-07-29T14:32:08.154Z,30.42
2022-07-29T14:34:37.703Z,30.12
2022-07-29T14:37:06.703Z,30.08
2022-07-29T14:39:42.649Z,29.75
2022-07-29T14:42:12.682Z,29.26
2022-07-29T14:44:42.530Z,28.22
2022-07-29T14:47:10.355Z,27.87
2022-07-29T14:49:38.199Z,27.91
2022-07-29T14:52:06.944Z,27.39
2022-07-29T14:54:34.474Z,26.97
2022-07-29T14:57:01.991Z,26.72
2022-07-29T14:59:29.438Z,26.50
2022-07-29T15:01:57.431Z,26.23
2022-07-29T15:04:25.032Z,26.10
2022-07-29T15:06:52.935Z,25.82
2022-07-29T15:09:20.412Z,25.93
2022-07-29T15:11:47.966Z,25.94
2022-07-29T15:14:15.546Z,26.14
2022-07-29T15:16:43.688Z,26.27
2022-07-29T15:19:14.261Z,26.74
2022-07-29T15:21:48.030Z,26.69
2022-07-29T15:24:18.013Z,27.01
2022-07-29T15:26:48.621Z,27.13
2022-07-29T15:29:16.402Z,26.73
2022-07-29T15:31:44.661Z,27.02
2022-07-29T15:34:12.165Z,27.09
2022-07-29T15:36:52.098Z,27.30
2022-07-29T15:39:21.827Z,27.11
2022-07-29T15:41:50.043Z,27.18
2022-07-29T15:44:17.958Z,27.42
2022-07-29T15:47:03.728Z,27.26
2022-07-29T15:49:48.119Z,27.17
2022-07-29T15:52:25.896Z,27.17
2022-07-29T15:54:56.353Z,27.13
2022-07-29T15:57:24.985Z,26.35
2022-07-29T15:59:52.697Z,26.39
2022-07-29T16:02:20.651Z,26.20
2022-07-29T16:04:48.719Z,26.00
2022-07-29T16:07:16.182Z,26.20
2022-07-29T16:09:49.320Z,25.92
2022-07-29T16:12:20.221Z,26.17
2022-07-29T16:14:49.539Z,26.31
2022-07-29T16:17:17.431Z,26.44
2022-07-29T16:19:45.578Z,26.50
2022-07-29T16:22:13.560Z,26.23
2022-07-29T16:24:41.761Z,26.49
2022-07-29T16:27:09.478Z,26.15
2022-07-29T16:29:37.432Z,25.73
2022-07-29T16:32:06.095Z,26.00
2022-07-29T16:34:33.711Z,26.42
2022-07-29T16:37:01.368Z,26.30
2022-07-29T16:39:29.012Z,26.07
2022-07-29T16:41:59.989Z,26.55
2022-07-29T16:44:28.589Z,26.52
2022-07-29T16:46:57.326Z,26.42
2022-07-29T16:49:27.699Z,26.34
2022-07-29T16:51:55.179Z,25.81
2022-07-29T16:54:22.823Z,25.44
2022-07-29T16:56:50.272Z,25.08
2022-07-29T16:59:18.544Z,25.46
2022-07-29T17:01:46.074Z,25.59
2022-07-29T17:04:14.988Z,25.56
2022-07-29T17:06:42.780Z,25.26
2022-07-29T17:09:11.825Z,25.27
2022-07-29T17:11:53.722Z,25.23
2022-07-29T17:14:26.969Z,24.74
2022-07-29T17:17:00.627Z,24.60
2022-07-29T17:19:32.850Z,24.77
2022-07-29T17:22:10.428Z,24.36
2022-07-29T17:24:39.084Z,24.45
2022-07-29T17:27:09.722Z,24.43
2022-07-29T17:29:38.857Z,24.20
2022-07-29T17:32:08.124Z,24.18
2022-07-29T17:34:40.019Z,24.24
2022-07-29T17:37:09.540Z,24.14
2022-07-29T17:39:40.804Z,24.19
2022-07-29T17:42:09.197Z,24.24
2022-07-29T17:44:37.350Z,24.28
2022-07-29T17:47:05.791Z,24.54
2022-07-29T17:49:36.011Z,24.47
2022-07-29T17:52:03.985Z,24.43
2022-07-29T17:54:31.487Z,24.59
2022-07-29T17:56:59.283Z,24.86
2022-07-29T17:59:27.203Z,24.25
2022-07-29T18:01:54.708Z,24.33
2022-07-29T18:04:23.556Z,24.58
2022-07-29T18:06:51.718Z,24.45
2022-07-29T18:09:19.218Z,24.08
2022-07-29T18:11:47.537Z,24.24
2022-07-29T18:14:14.996Z,24.24
2022-07-29T18:16:42.699Z,24.17
2022-07-29T18:19:10.228Z,23.89
2022-07-29T18:21:44.362Z,24.09
2022-07-29T18:24:27.596Z,23.61
2022-07-29T18:26:55.147Z,23.94
2022-07-29T18:29:22.679Z,23.79
2022-07-29T18:31:50.352Z,24.25
2022-07-29T18:34:17.900Z,23.68
2022-07-29T18:36:45.999Z,23.58
2022-07-29T18:39:19.176Z,23.37
2022-07-29T18:41:52.183Z,23.42
2022-07-29T18:44:21.897Z,23.67
2022-07-29T18:46:52.331Z,23.22
2022-07-29T18:49:20.571Z,23.20
2022-07-29T18:51:49.413Z,23.37
2022-07-29T18:54:17.622Z,23.53
2022-07-29T18:56:46.631Z,23.26
2022-07-29T18:59:19.920Z,23.19
2022-07-29T19:01:48.469Z,23.19
2022-07-29T19:04:17.366Z,23.13
2022-07-29T19:06:45.518Z,23.11
2022-07-29T19:09:13.082Z,23.12
2022-07-29T19:11:40.628Z,23.39
2022-07-29T19:14:08.132Z,22.91
2022-07-29T19:16:35.914Z,23.00
2022-07-29T19:19:03.498Z,23.42
2022-07-29T19:21:31.062Z,23.56
2022-07-29T19:24:01.876Z,23.70
2022-07-29T19:26:36.750Z,23.99
2022-07-29T19:29:04.713Z,23.69
2022-07-29T19:31:32.325Z,23.68
2022-07-29T19:33:59.893Z,23.82
2022-07-29T19:36:27.447Z,24.00
2022-07-29T19:38:55.033Z,23.70
2022-07-29T19:41:22.743Z,23.77
2022-07-29T19:43:53.068Z,23.56
2022-07-29T19:46:21.927Z,23.84
2022-07-29T19:48:50.080Z,23.74
2022-07-29T19:51:17.612Z,23.51
2022-07-29T19:53:45.103Z,22.90
2022-07-29T19:56:12.889Z,22.83
2022-07-29T19:58:41.278Z,22.92
2022-07-29T20:01:10.361Z,23.16
2022-07-29T20:03:40.109Z,23.50
2022-07-29T20:06:08.506Z,23.31
2022-07-29T20:08:36.483Z,23.45
2022-07-29T20:11:04.045Z,23.47
2022-07-29T20:13:33.637Z,22.95
2022-07-29T20:16:02.078Z,23.12
2022-07-29T20:18:29.799Z,23.22
2022-07-29T20:20:57.699Z,23.30
2022-07-29T20:23:25.276Z,23.49
2022-07-29T20:25:52.784Z,23.89
2022-07-29T20:28:22.619Z,23.71
2022-07-29T20:30:50.121Z,23.76
2022-07-29T20:33:17.711Z,23.95
2022-07-29T20:35:45.216Z,23.83
2022-07-29T20:38:16.406Z,23.98
2022-07-29T20:40:46.117Z,23.93
2022-07-29T20:43:13.594Z,23.50
2022-07-29T20:45:41.088Z,23.08
2022-07-29T20:48:10.501Z,23.43
2022-07-29T20:50:37.963Z,23.53
2022-07-29T20:53:05.505Z,23.65
2022-07-29T20:55:33.068Z,23.33
2022-07-29T20:58:00.522Z,23.16
2022-07-29T21:00:28.636Z,22.91
2022-07-29T21:02:56.146Z,22.91
2022-07-29T21:05:23.748Z,22.85
2022-07-29T21:07:54.370Z,22.77
2022-07-29T21:10:25.836Z,22.60
2022-07-29T21:12:53.307Z,22.92
2022-07-29T21:15:21.818Z,23.13
2022-07-29T21:17:49.411Z,22.98
2022-07-29T21:20:18.872Z,22.79
2022-07-29T21:22:46.344Z,22.65
2022-07-29T21:25:13.868Z,22.81
2022-07-29T21:27:59.724Z,22.87
2022-07-29T21:30:27.225Z,22.77
2022-07-29T21:32:54.812Z,22.81
2022-07-29T21:36:02.014Z,22.63
2022-07-29T21:38:09.832Z,22.47
2022-07-29T21:40:37.371Z,22.50
2022-07-29T21:43:04.808Z,22.66
2022-07-29T21:45:32.263Z,22.56
2022-07-29T21:47:59.716Z,22.50
2022-07-29T21:50:27.124Z,22.71
2022-07-29T21:52:54.631Z,22.48
2022-07-29T21:55:22.921Z,22.54
2022-07-29T21:57:56.438Z,22.47
2022-07-29T22:00:25.828Z,22.66
2022-07-29T22:02:53.543Z,22.25
2022-07-29T22:05:21.681Z,22.34
2022-07-29T22:07:54.178Z,22.17
2022-07-29T22:10:25.979Z,22.41
2022-07-29T22:12:55.425Z,22.54
2022-07-29T22:15:23.887Z,22.58
2022-07-29T22:17:51.603Z,22.44
2022-07-29T22:20:20.097Z,22.55
2022-07-29T22:22:48.212Z,22.39
2022-07-29T22:25:16.117Z,22.42
2022-07-29T22:27:44.300Z,22.31
2022-07-29T22:30:12.976Z,22.46
2022-07-29T22:32:40.522Z,22.33
2022-07-29T22:35:08.620Z,22.21
2022-07-29T22:37:36.178Z,22.27
2022-07-29T22:40:04.983Z,22.35
2022-07-29T22:42:35.247Z,22.48
2022-07-29T22:45:02.958Z,22.29
2022-07-29T22:47:46.638Z,22.09
2022-07-29T22:50:16.938Z,21.96
2022-07-29T22:52:45.600Z,22.02
2022-07-29T22:55:13.482Z,22.02
2022-07-29T22:57:41.392Z,22.08
2022-07-29T23:00:09.788Z,22.12
2022-07-29T23:02:38.196Z,22.11
2022-07-29T23:05:06.747Z,22.10
2022-07-29T23:07:34.629Z,22.08
2022-07-29T23:10:02.493Z,22.00
2022-07-29T23:12:30.800Z,21.91
2022-07-29T23:14:58.251Z,21.92
2022-07-29T23:17:25.732Z,21.84
2022-07-29T23:19:53.366Z,21.79
2022-07-29T23:22:20.846Z,21.91
2022-07-29T23:24:48.277Z,21.84
2022-07-29T23:27:15.797Z,21.86
2022-07-29T23:29:43.313Z,21.72
2022-07-29T23:32:10.798Z,21.75
2022-07-29T23:34:38.267Z,21.73
2022-07-29T23:37:05.959Z,21.63
2022-07-29T23:39:33.480Z,21.64
2022-07-29T23:42:01.119Z,21.54
2022-07-29T23:44:28.663Z,21.55
2022-07-29T23:46:56.358Z,21.60
2022-07-29T23:49:23.870Z,21.50
2022-07-29T23:51:51.409Z,21.75
2022-07-29T23:54:18.841Z,21.62
2022-07-29T23:56:46.464Z,21.48
2022-07-29T23:59:14.886Z,21.43
